createdAt,value
2022-09-04T00:05:20.432Z,15.34
2022-09-04T00:10:31.059Z,15.13
2022-09-04T00:15:39.274Z,15.20
2022-09-04T00:20:50.493Z,15.28
2022-09-04T00:26:02.960Z,15.28
2022-09-04T00:31:39.138Z,15.28
2022-09-04T00:36:49.922Z,15.29
2022-09-04T00:42:16.406Z,15.17
2022-09-04T00:47:27.185Z,15.13
2022-09-04T00:52:58.165Z,14.96
2022-09-04T00:58:23.997Z,14.93
2022-09-04T01:03:38.781Z,15.01
2022-09-04T01:09:03.316Z,15.01
2022-09-04T01:14:22.755Z,15.06
2022-09-04T01:19:50.946Z,15.12
2022-09-04T01:25:26.635Z,15.10
2022-09-04T01:30:37.495Z,15.08
2022-09-04T01:36:03.836Z,14.97
2022-09-04T01:41:24.297Z,14.86
2022-09-04T01:46:47.714Z,14.74
2022-09-04T01:52:04.977Z,14.81
2022-09-04T01:57:15.773Z,14.72
2022-09-04T02:02:34.677Z,14.85
2022-09-04T02:07:43.284Z,14.69
2022-09-04T02:12:58.368Z,14.52
2022-09-04T02:18:37.712Z,14.58
2022-09-04T02:24:14.100Z,14.53
2022-09-04T02:29:23.446Z,14.47
2022-09-04T02:34:30.766Z,14.45
2022-09-04T02:39:45.850Z,14.45
2022-09-04T02:45:12.028Z,14.43
2022-09-04T02:50:21.420Z,14.40
2022-09-04T02:55:44.481Z,14.36
2022-09-04T03:00:54.297Z,14.44
2022-09-04T03:06:06.880Z,14.50
2022-09-04T03:11:30.180Z,14.45
2022-09-04T03:17:03.546Z,14.43
2022-09-04T03:22:14.420Z,14.57
2022-09-04T03:27:18.902Z,14.59
2022-09-04T03:32:42.843Z,14.54
2022-09-04T03:38:14.452Z,14.53
2022-09-04T03:43:16.126Z,14.60
2022-09-04T03:48:48.599Z,14.51
2022-09-04T03:54:09.088Z,14.56
2022-09-04T03:59:38.058Z,14.49
2022-09-04T04:04:57.739Z,14.52
2022-09-04T04:10:25.176Z,14.51
2022-09-04T04:15:45.380Z,14.61
2022-09-04T04:21:28.254Z,14.64
2022-09-04T04:27:04.050Z,14.76
2022-09-04T04:32:30.083Z,14.96
2022-09-04T04:37:59.338Z,15.07
2022-09-04T04:43:31.036Z,14.97
2022-09-04T04:49:12.919Z,14.93
2022-09-04T04:54:42.711Z,14.96
2022-09-04T05:00:27.380Z,14.98
2022-09-04T05:05:53.982Z,14.98
2022-09-04T05:11:04.082Z,15.03
2022-09-04T05:16:26.503Z,15.27
2022-09-04T05:21:49.157Z,15.45
2022-09-04T05:27:20.325Z,15.61
2022-09-04T05:32:38.147Z,15.67
2022-09-04T05:37:56.399Z,15.63
2022-09-04T05:43:26.088Z,15.61
2022-09-04T05:49:07.025Z,15.87
2022-09-04T05:54:33.403Z,16.29
2022-09-04T05:59:42.531Z,16.35
2022-09-04T06:05:08.563Z,16.61
2022-09-04T06:10:22.432Z,16.60
2022-09-04T06:15:37.443Z,16.60
2022-09-04T06:20:44.561Z,16.48
2022-09-04T06:26:15.146Z,16.56
2022-09-04T06:31:19.979Z,16.65
2022-09-04T06:36:49.805Z,16.77
2022-09-04T06:42:09.524Z,16.86
2022-09-04T06:47:25.763Z,16.98
2022-09-04T06:52:42.067Z,17.10
2022-09-04T06:57:47.069Z,17.22
2022-09-04T07:03:07.009Z,17.35
2022-09-04T07:08:30.899Z,17.46
2022-09-04T07:13:56.537Z,17.60
2022-09-04T07:19:22.734Z,17.71
2022-09-04T07:24:52.608Z,17.71
2022-09-04T07:30:14.809Z,17.86
2022-09-04T07:35:34.531Z,17.94
2022-09-04T07:40:44.601Z,18.02
2022-09-04T07:45:53.928Z,18.16
2022-09-04T07:51:33.346Z,18.30
2022-09-04T07:56:53.844Z,18.41
2022-09-04T08:02:14.414Z,18.50
2022-09-04T08:07:59.150Z,18.63
2022-09-04T08:13:39.695Z,18.71
2022-09-04T08:19:07.284Z,18.82
2022-09-04T08:24:32.321Z,19.00
2022-09-04T08:29:47.483Z,19.14
2022-09-04T08:35:01.921Z,19.19
2022-09-04T08:40:34.764Z,19.28
2022-09-04T08:45:42.641Z,19.34
2022-09-04T08:51:26.620Z,19.43
2022-09-04T08:57:07.277Z,19.52
2022-09-04T09:02:30.451Z,19.72
2022-09-04T09:07:59.245Z,19.75
2022-09-04T09:13:42.538Z,19.81
2022-09-04T09:18:47.252Z,20.01
2022-09-04T09:24:25.993Z,20.18
2022-09-04T09:29:59.881Z,20.34
2022-09-04T09:35:06.894Z,20.43
2022-09-04T09:40:31.742Z,20.59
2022-09-04T09:45:46.772Z,20.78
2022-09-04T09:51:02.583Z,21.00
2022-09-04T09:56:35.065Z,21.15
2022-09-04T10:01:46.088Z,21.26
2022-09-04T10:07:27.094Z,21.44
2022-09-04T10:13:13.560Z,21.56
2022-09-04T10:18:45.837Z,21.71
2022-09-04T10:23:50.385Z,21.90
2022-09-04T10:29:20.927Z,22.10
2022-09-04T10:34:50.909Z,22.20
2022-09-04T10:40:34.525Z,22.39
2022-09-04T10:45:45.074Z,22.53
2022-09-04T10:51:20.949Z,22.78
2022-09-04T10:56:36.378Z,22.98
2022-09-04T11:02:11.652Z,23.08
2022-09-04T11:07:29.787Z,23.21
2022-09-04T11:12:55.955Z,23.37
2022-09-04T11:18:25.387Z,23.20
2022-09-04T11:23:48.599Z,23.39
2022-09-04T11:29:08.916Z,23.38
2022-09-04T11:34:44.465Z,23.47
2022-09-04T11:40:03.365Z,23.51
2022-09-04T11:45:29.065Z,23.56
2022-09-04T11:50:36.815Z,23.80
2022-09-04T11:55:59.865Z,24.06
2022-09-04T12:01:16.132Z,24.23
2022-09-04T12:06:56.306Z,24.32
2022-09-04T12:12:12.349Z,24.41
2022-09-04T12:17:50.092Z,24.72
2022-09-04T12:23:12.450Z,25.04
2022-09-04T12:28:48.304Z,24.95
2022-09-04T12:34:05.448Z,25.04
2022-09-04T12:39:27.037Z,25.12
2022-09-04T12:44:43.929Z,25.57
2022-09-04T12:50:01.171Z,25.59
2022-09-04T12:55:33.371Z,25.58
2022-09-04T13:01:00.023Z,25.72
2022-09-04T13:06:23.378Z,26.10
2022-09-04T13:11:31.366Z,26.24
2022-09-04T13:16:41.873Z,26.45
2022-09-04T13:22:14.729Z,26.69
2022-09-04T13:27:34.837Z,26.97
2022-09-04T13:32:53.539Z,26.84
2022-09-04T13:38:15.222Z,26.81
2022-09-04T13:43:47.902Z,26.65
2022-09-04T13:49:16.409Z,26.62
2022-09-04T13:54:33.262Z,26.65
2022-09-04T13:59:35.726Z,26.76
2022-09-04T14:04:45.074Z,26.82
2022-09-04T14:09:50.148Z,26.87
2022-09-04T14:14:59.582Z,26.87
2022-09-04T14:20:31.398Z,27.02
2022-09-04T14:25:45.105Z,27.25
2022-09-04T14:31:22.934Z,27.35
2022-09-04T14:36:45.833Z,27.30
2022-09-04T14:41:54.496Z,27.20
2022-09-04T14:47:03.228Z,27.19
2022-09-04T14:52:14.972Z,27.35
2022-09-04T14:57:51.487Z,26.54
2022-09-04T15:03:12.067Z,26.11
2022-09-04T15:08:27.087Z,25.91
2022-09-04T15:13:28.921Z,25.89
2022-09-04T15:18:41.931Z,25.64
2022-09-04T15:23:52.916Z,25.89
2022-09-04T15:29:16.203Z,26.63
2022-09-04T15:34:24.494Z,27.33
2022-09-04T15:39:32.753Z,27.16
2022-09-04T15:44:41.242Z,27.42
2022-09-04T15:49:50.422Z,27.67
2022-09-04T15:55:11.347Z,27.83
2022-09-04T16:00:15.707Z,27.95
2022-09-04T16:05:45.075Z,28.08
2022-09-04T16:10:54.850Z,28.17
2022-09-04T16:16:05.593Z,27.61
2022-09-04T16:21:27.238Z,27.68
2022-09-04T16:26:33.016Z,27.56
2022-09-04T16:31:36.805Z,26.99
2022-09-04T16:36:48.193Z,26.53
2022-09-04T16:42:10.253Z,26.34
2022-09-04T16:47:37.120Z,26.09
2022-09-04T16:52:43.654Z,25.78
2022-09-04T16:58:07.520Z,25.24
2022-09-04T17:03:21.621Z,24.89
2022-09-04T17:08:39.313Z,24.58
2022-09-04T17:13:55.406Z,24.20
2022-09-04T17:18:57.352Z,23.71
2022-09-04T17:29:04.939Z,23.35
2022-09-04T17:29:44.656Z,22.96
2022-09-04T17:40:34.822Z,22.51
2022-09-04T17:41:38.039Z,21.92
2022-09-04T17:46:28.440Z,21.45
2022-09-04T17:51:34.766Z,21.13
2022-09-04T17:56:45.474Z,20.89
2022-09-04T18:02:05.028Z,20.59
2022-09-04T18:08:07.667Z,20.22
2022-09-04T18:13:36.563Z,19.91
2022-09-04T18:18:49.157Z,19.81
2022-09-04T18:24:10.136Z,19.74
2022-09-04T18:33:55.623Z,19.50
2022-09-04T18:37:25.319Z,19.24
2022-09-04T18:45:32.658Z,18.90
2022-09-04T18:50:21.914Z,18.67
2022-09-04T18:51:52.428Z,18.44
2022-09-04T18:57:01.028Z,18.55
2022-09-04T19:02:21.237Z,18.56
2022-09-04T19:07:41.039Z,18.45
2022-09-04T19:12:46.867Z,18.25
2022-09-04T19:17:55.423Z,18.22
2022-09-04T19:23:05.502Z,18.34
2022-09-04T19:28:39.430Z,18.35
2022-09-04T19:33:59.760Z,18.31
2022-09-04T19:45:56.146Z,18.31
2022-09-04T19:46:25.721Z,17.96
2022-09-04T19:53:20.030Z,17.72
2022-09-04T19:56:08.434Z,17.51
2022-09-04T20:01:20.209Z,17.40
2022-09-04T20:06:30.123Z,17.40
2022-09-04T20:11:39.477Z,17.34
2022-09-04T20:17:08.768Z,17.30
2022-09-04T20:22:45.300Z,17.22
2022-09-04T20:27:54.107Z,17.16
2022-09-04T20:33:21.565Z,17.23
2022-09-04T20:38:32.361Z,17.26
2022-09-04T20:44:03.499Z,17.16
2022-09-04T20:52:50.476Z,17.14
2022-09-04T20:54:54.172Z,16.99
2022-09-04T21:03:08.664Z,16.92
2022-09-04T21:06:06.829Z,16.88
2022-09-04T21:11:39.697Z,16.80
2022-09-04T21:16:43.927Z,16.71
2022-09-04T21:22:01.081Z,16.69
2022-09-04T21:27:14.642Z,16.67
2022-09-04T21:32:34.900Z,16.67
2022-09-04T21:37:46.606Z,16.66
2022-09-04T21:43:35.875Z,16.67
2022-09-04T21:49:26.381Z,16.83
2022-09-04T21:59:11.585Z,16.92
2022-09-04T22:02:36.346Z,16.96
2022-09-04T22:09:31.941Z,17.00
2022-09-04T22:13:33.323Z,17.06
2022-09-04T22:18:04.354Z,17.06
2022-09-04T22:23:30.769Z,17.00
2022-09-04T22:29:09.756Z,16.95
2022-09-04T22:34:39.687Z,16.90
2022-09-04T22:40:15.640Z,16.89
2022-09-04T22:45:54.577Z,16.90
2022-09-04T22:51:16.566Z,16.87
2022-09-04T22:56:52.523Z,16.82
2022-09-04T23:02:13.691Z,16.73
2022-09-04T23:11:05.690Z,16.65
2022-09-04T23:13:56.777Z,16.63
2022-09-04T23:26:36.428Z,16.59
2022-09-04T23:26:47.009Z,16.52
2022-09-04T23:30:54.785Z,16.45
2022-09-04T23:36:37.557Z,16.54
2022-09-04T23:41:48.811Z,16.61
2022-09-04T23:47:48.258Z,16.48
2022-09-04T23:53:22.100Z,16.23
2022-09-04T23:59:03.837Z,16.20
